map of TSN home
TSN - Airport
Location
City:  Tianjin, Tianjin, China
Name:Binhai International Airport
ICAO:ZBTJ
IATA:TSN

Details
Type:Airport (Aerodrome, Airfield)
Use:Public/Civil, International (customs port of entry)
Latitude:39°07'N (39.123)
Longitude:117°21'E (117.345)
Elevation:13 ft (4 m)
Variation:6.94°W (WMM2015 magnetic declination)
-0.06° annual change
Runways:2
Longest:11811 × 164 ft (3600 × 50 m), paved

Time
Time Zone:UTC+8
Local Time:

Weather
METAR:ZBTJ 191430Z 21002MPS 1800 BR NSC 12/11 Q1021 NOSIG

Related Locations
Nearby:
Farthest:BHI: 12396 mi / 19950 km
Bahía Blanca [Comandante Espora Airport], B, AR

Find:

   beyond  
but within

Other Information
Maps:
NOTAMs:
Links:
Sources:

  
flag of China   

Airport Diagram

Airport diagram for TSN

Airport diagram PDF

Sectional Chart

Flight Planning
at skyvector.com

Satellite Image

Google Maps Satellite view

 

Copyright © 2004-2017 Karl L. Swartz. All rights reserved.
The Great Circle Mapper name and logo are trademarks of the Great Circle Mapper.
All other trademarks mentioned herein belong to their respective owners.
Please see credits for attibutions and further copyright information.

  Follow gcmap on Facebook Follow gcmap on Twitter Follow gcmap on Google+ GCmap on LinkedIn

hCard Microformat

Geo Microformat